sensor_id;sensor_type;location;lat;lon;timestamp;pressure;altitude;pressure_sealevel;temperature;humidity
16100;BME280;8154;50.830;12.082;2024-02-15T00:02:29;99691.75;;;22.80;38.67
16100;BME280;8154;50.830;12.082;2024-02-15T00:04:58;99690.13;;;22.79;38.75
16100;BME280;8154;50.830;12.082;2024-02-15T00:07:24;99679.81;;;22.76;38.70
16100;BME280;8154;50.830;12.082;2024-02-15T00:09:53;99687.25;;;22.80;38.72
16100;BME280;8154;50.830;12.082;2024-02-15T00:12:20;99685.03;;;22.84;38.63
16100;BME280;8154;50.830;12.082;2024-02-15T00:14:47;99683.19;;;22.84;38.57
16100;BME280;8154;50.830;12.082;2024-02-15T00:17:16;99679.09;;;22.82;38.56
16100;BME280;8154;50.830;12.082;2024-02-15T00:19:42;99676.84;;;22.85;38.55
16100;BME280;8154;50.830;12.082;2024-02-15T00:22:10;99678.34;;;22.88;38.52
16100;BME280;8154;50.830;12.082;2024-02-15T00:24:37;99674.66;;;22.89;38.41
16100;BME280;8154;50.830;12.082;2024-02-15T00:27:04;99684.47;;;22.88;38.39
16100;BME280;8154;50.830;12.082;2024-02-15T00:29:31;99686.69;;;22.85;38.43
16100;BME280;8154;50.830;12.082;2024-02-15T00:31:57;99685.78;;;22.77;38.62
16100;BME280;8154;50.830;12.082;2024-02-15T00:34:25;99686.16;;;22.74;38.46
16100;BME280;8154;50.830;12.082;2024-02-15T00:36:53;99671.75;;;22.69;38.48
16100;BME280;8154;50.830;12.082;2024-02-15T00:39:19;99693.78;;;22.77;38.51
16100;BME280;8154;50.830;12.082;2024-02-15T00:41:46;99702.22;;;22.81;38.42
16100;BME280;8154;50.830;12.082;2024-02-15T00:44:12;99687.16;;;22.73;38.49
16100;BME280;8154;50.830;12.082;2024-02-15T00:46:38;99699.84;;;22.86;38.46
16100;BME280;8154;50.830;12.082;2024-02-15T00:49:06;99701.13;;;22.90;38.26
16100;BME280;8154;50.830;12.082;2024-02-15T00:51:33;99701.31;;;22.89;38.25
16100;BME280;8154;50.830;12.082;2024-02-15T00:54:00;99701.31;;;22.89;38.33
16100;BME280;8154;50.830;12.082;2024-02-15T00:56:29;99703.69;;;22.84;38.26
16100;BME280;8154;50.830;12.082;2024-02-15T00:58:59;99703.06;;;22.82;38.27
16100;BME280;8154;50.830;12.082;2024-02-15T01:01:30;99703.06;;;22.82;38.37
16100;BME280;8154;50.830;12.082;2024-02-15T01:03:58;99694.88;;;22.83;38.15
16100;BME280;8154;50.830;12.082;2024-02-15T01:06:24;99699.56;;;22.81;38.18
16100;BME280;8154;50.830;12.082;2024-02-15T01:08:51;99706.53;;;22.82;38.31
16100;BME280;8154;50.830;12.082;2024-02-15T01:11:18;99701.38;;;22.81;38.10
16100;BME280;8154;50.830;12.082;2024-02-15T01:13:45;99696.91;;;22.81;38.07
16100;BME280;8154;50.830;12.082;2024-02-15T01:16:12;99705.97;;;22.87;38.21
16100;BME280;8154;50.830;12.082;2024-02-15T01:18:39;99697.00;;;22.88;37.99
16100;BME280;8154;50.830;12.082;2024-02-15T01:21:06;99692.03;;;22.85;37.90
16100;BME280;8154;50.830;12.082;2024-02-15T01:23:34;99694.75;;;22.91;37.79
16100;BME280;8154;50.830;12.082;2024-02-15T01:26:03;99686.22;;;22.96;38.00
16100;BME280;8154;50.830;12.082;2024-02-15T01:28:32;99685.31;;;22.89;37.81
16100;BME280;8154;50.830;12.082;2024-02-15T01:31:00;99692.28;;;22.90;37.83
16100;BME280;8154;50.830;12.082;2024-02-15T01:33:26;99692.28;;;22.90;37.79
16100;BME280;8154;50.830;12.082;2024-02-15T01:35:55;99684.41;;;22.82;37.83
16100;BME280;8154;50.830;12.082;2024-02-15T01:38:23;99684.47;;;22.88;38.04
16100;BME280;8154;50.830;12.082;2024-02-15T01:40:52;99685.31;;;22.89;37.77
16100;BME280;8154;50.830;12.082;2024-02-15T01:43:18;99690.81;;;22.87;37.90
16100;BME280;8154;50.830;12.082;2024-02-15T01:45:45;99673.38;;;22.85;37.71
16100;BME280;8154;50.830;12.082;2024-02-15T01:48:14;99677.13;;;22.90;37.93
16100;BME280;8154;50.830;12.082;2024-02-15T01:50:42;99681.09;;;22.94;37.62
16100;BME280;8154;50.830;12.082;2024-02-15T01:53:10;99684.56;;;22.95;37.78
16100;BME280;8154;50.830;12.082;2024-02-15T01:55:39;99671.28;;;22.80;37.59
16100;BME280;8154;50.830;12.082;2024-02-15T01:58:06;99679.13;;;22.88;37.66
16100;BME280;8154;50.830;12.082;2024-02-15T02:00:34;99677.50;;;22.87;37.74
16100;BME280;8154;50.830;12.082;2024-02-15T02:03:05;99681.63;;;22.90;37.76
16100;BME280;8154;50.830;12.082;2024-02-15T02:05:33;99681.63;;;22.90;37.56
16100;BME280;8154;50.830;12.082;2024-02-15T02:07:59;99632.34;;;22.64;37.63
16100;BME280;8154;50.830;12.082;2024-02-15T02:10:31;99674.66;;;22.89;37.58
16100;BME280;8154;50.830;12.082;2024-02-15T02:13:00;99665.75;;;22.82;37.56
16100;BME280;8154;50.830;12.082;2024-02-15T02:15:31;99661.69;;;22.86;37.45
16100;BME280;8154;50.830;12.082;2024-02-15T02:18:01;99677.22;;;22.97;37.56
16100;BME280;8154;50.830;12.082;2024-02-15T02:20:28;99667.91;;;22.93;37.21
16100;BME280;8154;50.830;12.082;2024-02-15T02:23:01;99669.31;;;22.89;37.34
16100;BME280;8154;50.830;12.082;2024-02-15T02:25:34;99675.09;;;22.92;37.55
16100;BME280;8154;50.830;12.082;2024-02-15T02:28:01;99670.97;;;22.90;37.44
16100;BME280;8154;50.830;12.082;2024-02-15T02:30:28;99677.97;;;22.91;37.47
16100;BME280;8154;50.830;12.082;2024-02-15T02:32:59;99674.47;;;22.90;37.39
16100;BME280;8154;50.830;12.082;2024-02-15T02:35:25;99666.66;;;22.89;37.39
16100;BME280;8154;50.830;12.082;2024-02-15T02:37:53;99676.38;;;22.96;37.48
16100;BME280;8154;50.830;12.082;2024-02-15T02:40:24;99671.22;;;22.95;37.50
16100;BME280;8154;50.830;12.082;2024-02-15T02:42:56;99678.47;;;23.01;37.06
16100;BME280;8154;50.830;12.082;2024-02-15T02:45:25;99676.00;;;22.99;37.26
16100;BME280;8154;50.830;12.082;2024-02-15T02:47:53;99667.81;;;23.01;37.40
16100;BME280;8154;50.830;12.082;2024-02-15T02:50:23;99668.84;;;23.00;37.39
16100;BME280;8154;50.830;12.082;2024-02-15T02:52:51;99668.19;;;22.98;37.37
16100;BME280;8154;50.830;12.082;2024-02-15T02:55:18;99666.28;;;22.92;37.48
16100;BME280;8154;50.830;12.082;2024-02-15T02:57:45;99662.16;;;22.89;37.22
16100;BME280;8154;50.830;12.082;2024-02-15T03:00:13;99663.78;;;22.90;37.30
16100;BME280;8154;50.830;12.082;2024-02-15T03:02:43;99666.28;;;22.92;37.36
16100;BME280;8154;50.830;12.082;2024-02-15T03:05:10;99667.31;;;22.91;37.45
16100;BME280;8154;50.830;12.082;2024-02-15T03:07:42;99676.56;;;22.95;37.22
16100;BME280;8154;50.830;12.082;2024-02-15T03:10:08;99675.09;;;22.92;37.48
16100;BME280;8154;50.830;12.082;2024-02-15T03:12:36;99670.78;;;22.91;37.42
16100;BME280;8154;50.830;12.082;2024-02-15T03:15:04;99674.72;;;22.95;37.46
16100;BME280;8154;50.830;12.082;2024-02-15T03:17:31;99642.97;;;22.79;37.27
16100;BME280;8154;50.830;12.082;2024-02-15T03:19:59;99669.41;;;22.95;37.14
16100;BME280;8154;50.830;12.082;2024-02-15T03:22:28;99672.44;;;22.92;37.07
16100;BME280;8154;50.830;12.082;2024-02-15T03:24:55;99656.94;;;22.81;37.13
16100;BME280;8154;50.830;12.082;2024-02-15T03:27:21;99665.91;;;22.95;37.32
16100;BME280;8154;50.830;12.082;2024-02-15T03:29:50;99666.19;;;23.00;37.09
16100;BME280;8154;50.830;12.082;2024-02-15T03:32:19;99676.19;;;22.98;37.14
16100;BME280;8154;50.830;12.082;2024-02-15T03:34:45;99667.38;;;22.97;37.06
16100;BME280;8154;50.830;12.082;2024-02-15T03:37:14;99654.53;;;22.86;37.08
16100;BME280;8154;50.830;12.082;2024-02-15T03:39:41;99674.34;;;22.98;37.09
16100;BME280;8154;50.830;12.082;2024-02-15T03:42:07;99672.78;;;23.04;37.05
16100;BME280;8154;50.830;12.082;2024-02-15T03:44:34;99669.31;;;23.03;36.89
16100;BME280;8154;50.830;12.082;2024-02-15T03:47:01;99672.16;;;23.02;36.85
16100;BME280;8154;50.830;12.082;2024-02-15T03:49:27;99673.16;;;23.01;37.10
16100;BME280;8154;50.830;12.082;2024-02-15T03:51:54;99686.47;;;23.01;36.93
16100;BME280;8154;50.830;12.082;2024-02-15T03:54:21;99632.94;;;22.66;36.89
16100;BME280;8154;50.830;12.082;2024-02-15T03:56:50;99662.53;;;22.86;36.91
16100;BME280;8154;50.830;12.082;2024-02-15T03:59:20;99696.53;;;22.99;36.91
16100;BME280;8154;50.830;12.082;2024-02-15T04:01:56;99681.25;;;22.93;37.02
16100;BME280;8154;50.830;12.082;2024-02-15T04:04:26;99667.88;;;22.86;36.88
16100;BME280;8154;50.830;12.082;2024-02-15T04:06:57;99695.13;;;23.03;36.73
16100;BME280;8154;50.830;12.082;2024-02-15T04:09:25;99686.84;;;22.98;36.86
16100;BME280;8154;50.830;12.082;2024-02-15T04:11:52;99694.94;;;23.04;36.71
16100;BME280;8154;50.830;12.082;2024-02-15T04:14:19;99689.78;;;23.03;36.84
16100;BME280;8154;50.830;12.082;2024-02-15T04:16:48;99701.09;;;23.05;36.84
16100;BME280;8154;50.830;12.082;2024-02-15T04:19:14;99699.25;;;23.05;36.73
16100;BME280;8154;50.830;12.082;2024-02-15T04:21:42;99685.47;;;23.02;36.81
16100;BME280;8154;50.830;12.082;2024-02-15T04:24:10;99685.22;;;22.97;36.89
16100;BME280;8154;50.830;12.082;2024-02-15T04:26:38;99696.34;;;23.00;36.97
16100;BME280;8154;50.830;12.082;2024-02-15T04:29:05;99698.16;;;23.00;37.00
16100;BME280;8154;50.830;12.082;2024-02-15T04:31:35;99695.31;;;23.01;36.96
16100;BME280;8154;50.830;12.082;2024-02-15T04:34:06;99680.25;;;22.94;36.62
16100;BME280;8154;50.830;12.082;2024-02-15T04:36:33;99688.72;;;22.97;36.76
16100;BME280;8154;50.830;12.082;2024-02-15T04:39:00;99682.81;;;23.02;36.78
16100;BME280;8154;50.830;12.082;2024-02-15T04:41:30;99687.13;;;23.03;36.77
16100;BME280;8154;50.830;12.082;2024-02-15T04:43:57;99674.16;;;23.00;36.63
16100;BME280;8154;50.830;12.082;2024-02-15T04:46:24;99674.81;;;23.02;36.86
16100;BME280;8154;50.830;12.082;2024-02-15T04:48:52;99685.09;;;23.05;36.79
16100;BME280;8154;50.830;12.082;2024-02-15T04:51:20;99687.59;;;23.06;36.73
16100;BME280;8154;50.830;12.082;2024-02-15T04:53:47;99684.75;;;22.93;36.79
16100;BME280;8154;50.830;12.082;2024-02-15T04:56:14;99702.84;;;22.98;36.67
16100;BME280;8154;50.830;12.082;2024-02-15T04:58:43;99695.03;;;22.96;36.74
16100;BME280;8154;50.830;12.082;2024-02-15T05:01:15;99697.88;;;22.95;36.96
16100;BME280;8154;50.830;12.082;2024-02-15T05:03:48;99673.56;;;22.83;36.98
16100;BME280;8154;50.830;12.082;2024-02-15T05:06:14;99701.72;;;23.07;36.46
16100;BME280;8154;50.830;12.082;2024-02-15T05:08:41;99698.06;;;23.08;36.45
16100;BME280;8154;50.830;12.082;2024-02-15T05:11:11;99712.38;;;23.07;36.73
16100;BME280;8154;50.830;12.082;2024-02-15T05:13:45;99714.06;;;23.08;36.78
16100;BME280;8154;50.830;12.082;2024-02-15T05:16:13;99705.22;;;23.07;36.43
16100;BME280;8154;50.830;12.082;2024-02-15T05:18:39;99685.59;;;22.94;36.49
16100;BME280;8154;50.830;12.082;2024-02-15T05:21:10;99689.88;;;22.95;36.50
16100;BME280;8154;50.830;12.082;2024-02-15T05:23:36;99703.50;;;23.00;36.63
16100;BME280;8154;50.830;12.082;2024-02-15T05:26:08;99699.81;;;23.01;36.78
16100;BME280;8154;50.830;12.082;2024-02-15T05:28:35;99686.03;;;22.97;36.79
16100;BME280;8154;50.830;12.082;2024-02-15T05:31:17;99689.13;;;23.01;36.48
16100;BME280;8154;50.830;12.082;2024-02-15T05:33:47;99676.56;;;22.95;36.59
16100;BME280;8154;50.830;12.082;2024-02-15T05:36:15;99682.16;;;23.00;36.61
16100;BME280;8154;50.830;12.082;2024-02-15T05:38:44;99672.59;;;23.05;36.58
16100;BME280;8154;50.830;12.082;2024-02-15T05:41:11;99676.72;;;23.08;36.43
16100;BME280;8154;50.830;12.082;2024-02-15T05:43:40;99675.06;;;23.07;36.34
16100;BME280;8154;50.830;12.082;2024-02-15T05:46:10;99672.78;;;23.04;36.31
16100;BME280;8154;50.830;12.082;2024-02-15T05:48:37;99691.25;;;23.05;36.26
16100;BME280;8154;50.830;12.082;2024-02-15T05:51:08;99696.56;;;23.05;36.50
16100;BME280;8154;50.830;12.082;2024-02-15T05:53:35;99694.47;;;23.01;36.26
16100;BME280;8154;50.830;12.082;2024-02-15T05:56:05;99695.50;;;23.00;36.59
16100;BME280;8154;50.830;12.082;2024-02-15T05:58:36;99691.63;;;23.02;36.45
16100;BME280;8154;50.830;12.082;2024-02-15T06:01:04;99690.44;;;23.05;36.35
16100;BME280;8154;50.830;12.082;2024-02-15T06:03:38;99685.53;;;23.08;36.31
16100;BME280;8154;50.830;12.082;2024-02-15T06:06:07;99678.09;;;23.04;36.34
16100;BME280;8154;50.830;12.082;2024-02-15T06:08:36;99675.06;;;23.07;36.56
16100;BME280;8154;50.830;12.082;2024-02-15T06:11:03;99674.69;;;23.10;36.50
16100;BME280;8154;50.830;12.082;2024-02-15T06:13:36;99665.41;;;23.06;36.39
16100;BME280;8154;50.830;12.082;2024-02-15T06:16:03;99674.88;;;23.08;36.46
16100;BME280;8154;50.830;12.082;2024-02-15T06:18:35;99692.72;;;23.08;36.42
16100;BME280;8154;50.830;12.082;2024-02-15T06:21:03;99645.91;;;22.69;36.58
16100;BME280;8154;50.830;12.082;2024-02-15T06:23:31;99701.19;;;22.97;36.61
16100;BME280;8154;50.830;12.082;2024-02-15T06:26:01;99655.19;;;22.73;36.54
16100;BME280;8154;50.830;12.082;2024-02-15T06:28:29;99705.78;;;23.03;36.50
16100;BME280;8154;50.830;12.082;2024-02-15T06:31:15;99702.94;;;23.04;36.37
16100;BME280;8154;50.830;12.082;2024-02-15T06:34:02;99702.94;;;23.04;36.48
16100;BME280;8154;50.830;12.082;2024-02-15T06:36:56;99708.72;;;23.08;36.24
16100;BME280;8154;50.830;12.082;2024-02-15T06:39:44;99714.34;;;23.13;36.36
16100;BME280;8154;50.830;12.082;2024-02-15T06:42:16;99712.66;;;23.12;36.34
16100;BME280;8154;50.830;12.082;2024-02-15T06:44:47;99717.72;;;23.07;36.57
16100;BME280;8154;50.830;12.082;2024-02-15T06:47:16;99722.63;;;23.03;36.38
16100;BME280;8154;50.830;12.082;2024-02-15T06:49:46;99718.28;;;23.02;36.26
16100;BME280;8154;50.830;12.082;2024-02-15T06:52:16;99727.75;;;23.05;36.34
16100;BME280;8154;50.830;12.082;2024-02-15T06:54:43;99728.56;;;23.05;36.61
16100;BME280;8154;50.830;12.082;2024-02-15T06:57:14;99732.06;;;23.06;36.40
16100;BME280;8154;50.830;12.082;2024-02-15T06:59:46;99735.19;;;23.09;36.18
16100;BME280;8154;50.830;12.082;2024-02-15T07:02:15;99739.69;;;23.09;36.33
16100;BME280;8154;50.830;12.082;2024-02-15T07:04:45;99728.19;;;23.08;36.19
16100;BME280;8154;50.830;12.082;2024-02-15T07:07:11;99736.84;;;23.10;36.11
16100;BME280;8154;50.830;12.082;2024-02-15T07:09:41;99731.50;;;23.10;36.32
16100;BME280;8154;50.830;12.082;2024-02-15T07:12:07;99726.81;;;23.12;36.12
16100;BME280;8154;50.830;12.082;2024-02-15T07:14:35;99736.66;;;23.12;36.27
16100;BME280;8154;50.830;12.082;2024-02-15T07:17:02;99728.94;;;23.17;36.01
16100;BME280;8154;50.830;12.082;2024-02-15T07:19:30;99740.63;;;23.16;36.24
16100;BME280;8154;50.830;12.082;2024-02-15T07:22:00;99738.50;;;23.11;36.28
16100;BME280;8154;50.830;12.082;2024-02-15T07:24:28;99735.38;;;23.08;35.97
16100;BME280;8154;50.830;12.082;2024-02-15T07:26:56;99727.38;;;23.08;36.16
16100;BME280;8154;50.830;12.082;2024-02-15T07:29:22;99734.00;;;23.12;36.29
16100;BME280;8154;50.830;12.082;2024-02-15T07:31:50;99736.00;;;23.10;36.16
16100;BME280;8154;50.830;12.082;2024-02-15T07:34:18;99728.00;;;23.10;36.30
16100;BME280;8154;50.830;12.082;2024-02-15T07:36:45;99716.44;;;23.03;36.45
16100;BME280;8154;50.830;12.082;2024-02-15T07:39:12;99725.44;;;23.16;36.08
16100;BME280;8154;50.830;12.082;2024-02-15T07:41:49;99727.91;;;23.18;36.14
16100;BME280;8154;50.830;12.082;2024-02-15T07:44:17;99726.06;;;23.18;36.01
16100;BME280;8154;50.830;12.082;2024-02-15T07:46:46;99724.88;;;23.21;35.94
16100;BME280;8154;50.830;12.082;2024-02-15T07:49:14;99729.19;;;23.22;36.14
16100;BME280;8154;50.830;12.082;2024-02-15T07:51:43;99727.53;;;23.21;35.89
16100;BME280;8154;50.830;12.082;2024-02-15T07:54:10;99726.44;;;23.15;36.12
16100;BME280;8154;50.830;12.082;2024-02-15T07:56:39;99735.47;;;23.14;36.27
16100;BME280;8154;50.830;12.082;2024-02-15T07:59:05;99732.63;;;23.16;35.96
16100;BME280;8154;50.830;12.082;2024-02-15T08:01:34;99736.75;;;23.18;35.96
16100;BME280;8154;50.830;12.082;2024-02-15T08:04:02;99728.94;;;23.17;36.22
16100;BME280;8154;50.830;12.082;2024-02-15T08:06:31;99731.41;;;23.18;36.08
16100;BME280;8154;50.830;12.082;2024-02-15T08:09:00;99731.22;;;23.20;36.02
16100;BME280;8154;50.830;12.082;2024-02-15T08:11:28;99733.69;;;23.21;36.09
16100;BME280;8154;50.830;12.082;2024-02-15T08:13:54;99736.00;;;23.24;36.11
16100;BME280;8154;50.830;12.082;2024-02-15T08:16:26;99734.53;;;23.22;35.98
16100;BME280;8154;50.830;12.082;2024-02-15T08:18:56;99728.19;;;23.23;35.96
16100;BME280;8154;50.830;12.082;2024-02-15T08:21:27;99726.19;;;23.25;35.80
16100;BME280;8154;50.830;12.082;2024-02-15T08:24:03;99720.00;;;23.24;36.14
16100;BME280;8154;50.830;12.082;2024-02-15T08:26:33;99719.28;;;23.16;35.85
16100;BME280;8154;50.830;12.082;2024-02-15T08:29:03;99725.06;;;23.19;36.13
16100;BME280;8154;50.830;12.082;2024-02-15T08:31:30;99726.06;;;23.18;35.95
16100;BME280;8154;50.830;12.082;2024-02-15T08:34:00;99721.78;;;23.17;35.93
16100;BME280;8154;50.830;12.082;2024-02-15T08:36:27;99720.28;;;23.15;36.14
16100;BME280;8154;50.830;12.082;2024-02-15T08:38:53;99724.06;;;23.20;35.99
16100;BME280;8154;50.830;12.082;2024-02-15T08:41:23;99680.53;;;22.99;36.07
16100;BME280;8154;50.830;12.082;2024-02-15T08:43:53;99725.50;;;23.23;35.83
16100;BME280;8154;50.830;12.082;2024-02-15T08:46:22;99723.88;;;23.22;35.88
16100;BME280;8154;50.830;12.082;2024-02-15T08:48:53;99715.22;;;23.20;36.02
16100;BME280;8154;50.830;12.082;2024-02-15T08:51:19;99716.50;;;23.24;35.80
16100;BME280;8154;50.830;12.082;2024-02-15T08:53:49;99714.84;;;23.23;36.04
16100;BME280;8154;50.830;12.082;2024-02-15T08:56:17;99707.41;;;23.18;35.73
16100;BME280;8154;50.830;12.082;2024-02-15T08:58:45;99720.38;;;23.21;35.95
16100;BME280;8154;50.830;12.082;2024-02-15T09:01:12;99716.69;;;23.22;35.76
16100;BME280;8154;50.830;12.082;2024-02-15T09:03:39;99724.06;;;23.20;36.09
16100;BME280;8154;50.830;12.082;2024-02-15T09:06:06;99723.78;;;23.30;35.71
16100;BME280;8154;50.830;12.082;2024-02-15T09:08:34;99722.78;;;23.31;35.74
16100;BME280;8154;50.830;12.082;2024-02-15T09:11:02;99724.78;;;23.29;35.83
16100;BME280;8154;50.830;12.082;2024-02-15T09:13:29;99715.53;;;23.25;35.87
16100;BME280;8154;50.830;12.082;2024-02-15T09:15:55;99722.97;;;23.29;35.94
16100;BME280;8154;50.830;12.082;2024-02-15T09:18:22;99722.13;;;23.29;35.83
16100;BME280;8154;50.830;12.082;2024-02-15T09:20:48;99722.78;;;23.31;35.83
16100;BME280;8154;50.830;12.082;2024-02-15T09:23:23;99715.16;;;23.28;35.77
16100;BME280;8154;50.830;12.082;2024-02-15T09:25:50;99715.16;;;23.28;35.87
16100;BME280;8154;50.830;12.082;2024-02-15T09:28:19;99716.97;;;23.27;35.78
16100;BME280;8154;50.830;12.082;2024-02-15T09:30:50;99719.84;;;23.26;35.94
16100;BME280;8154;50.830;12.082;2024-02-15T09:33:25;99711.34;;;23.22;35.90
16100;BME280;8154;50.830;12.082;2024-02-15T09:35:52;99716.78;;;23.29;35.78
16100;BME280;8154;50.830;12.082;2024-02-15T09:38:23;99716.34;;;23.25;35.98
16100;BME280;8154;50.830;12.082;2024-02-15T09:40:53;99712.19;;;23.23;36.06
16100;BME280;8154;50.830;12.082;2024-02-15T09:43:21;99709.81;;;23.28;35.84
16100;BME280;8154;50.830;12.082;2024-02-15T09:45:54;99710.00;;;23.26;35.62
16100;BME280;8154;50.830;12.082;2024-02-15T09:48:25;99713.75;;;23.32;35.78
16100;BME280;8154;50.830;12.082;2024-02-15T09:50:53;99715.66;;;23.38;35.85
16100;BME280;8154;50.830;12.082;2024-02-15T09:53:22;99706.41;;;23.34;35.73
16100;BME280;8154;50.830;12.082;2024-02-15T09:55:55;99702.63;;;23.28;35.61
16100;BME280;8154;50.830;12.082;2024-02-15T09:58:22;99707.41;;;23.33;35.61
16100;BME280;8154;50.830;12.082;2024-02-15T10:00:54;99708.69;;;23.37;35.61
16100;BME280;8154;50.830;12.082;2024-02-15T10:03:24;99711.53;;;23.35;35.54
16100;BME280;8154;50.830;12.082;2024-02-15T10:05:52;99716.41;;;23.32;35.65
16100;BME280;8154;50.830;12.082;2024-02-15T10:08:19;99717.72;;;23.36;35.58
16100;BME280;8154;50.830;12.082;2024-02-15T10:11:07;99706.66;;;23.24;35.94
16100;BME280;8154;50.830;12.082;2024-02-15T10:13:35;99706.41;;;23.34;35.79
16100;BME280;8154;50.830;12.082;2024-02-15T10:16:16;99712.38;;;23.36;35.66
16100;BME280;8154;50.830;12.082;2024-02-15T10:18:42;99716.31;;;23.40;35.69
16100;BME280;8154;50.830;12.082;2024-02-15T10:21:08;99714.66;;;23.39;35.59
16100;BME280;8154;50.830;12.082;2024-02-15T10:23:36;99714.66;;;23.39;35.71
16100;BME280;8154;50.830;12.082;2024-02-15T10:26:19;99704.59;;;23.41;35.51
16100;BME280;8154;50.830;12.082;2024-02-15T10:29:05;99696.59;;;23.41;35.44
16100;BME280;8154;50.830;12.082;2024-02-15T10:31:39;99699.91;;;23.43;35.49
16100;BME280;8154;50.830;12.082;2024-02-15T10:34:09;99713.63;;;23.40;35.68
16100;BME280;8154;50.830;12.082;2024-02-15T10:36:35;99705.38;;;23.35;35.75
16100;BME280;8154;50.830;12.082;2024-02-15T10:39:21;99702.88;;;23.33;35.86
16100;BME280;8154;50.830;12.082;2024-02-15T10:41:51;99696.47;;;23.28;35.83
16100;BME280;8154;50.830;12.082;2024-02-15T10:44:20;99701.91;;;23.34;35.81
16100;BME280;8154;50.830;12.082;2024-02-15T10:46:51;99704.38;;;23.36;35.57
16100;BME280;8154;50.830;12.082;2024-02-15T10:49:21;99701.94;;;23.41;35.50
16100;BME280;8154;50.830;12.082;2024-02-15T10:54:41;99692.94;;;23.42;35.35
16100;BME280;8154;50.830;12.082;2024-02-15T10:57:13;99691.47;;;23.39;35.49
16100;BME280;8154;50.830;12.082;2024-02-15T11:00:10;99685.38;;;23.45;35.49
16100;BME280;8154;50.830;12.082;2024-02-15T11:05:21;99681.91;;;23.45;35.42
16100;BME280;8154;50.830;12.082;2024-02-15T11:07:51;99679.84;;;23.47;35.38
16100;BME280;8154;50.830;12.082;2024-02-15T11:10:19;99675.28;;;23.41;35.66
16100;BME280;8154;50.830;12.082;2024-02-15T11:12:46;99672.38;;;23.36;35.51
16100;BME280;8154;50.830;12.082;2024-02-15T11:15:40;99671.97;;;23.39;35.52
16100;BME280;8154;50.830;12.082;2024-02-15T11:18:09;99671.78;;;23.40;35.54
16100;BME280;8154;50.830;12.082;2024-02-15T11:23:05;99669.75;;;23.42;35.52
16100;BME280;8154;50.830;12.082;2024-02-15T11:25:34;99664.22;;;23.44;35.43
16100;BME280;8154;50.830;12.082;2024-02-15T11:30:49;99667.91;;;23.43;35.41
16100;BME280;8154;50.830;12.082;2024-02-15T11:33:33;99667.91;;;23.43;35.42
16100;BME280;8154;50.830;12.082;2024-02-15T11:36:08;99674.09;;;23.43;35.51
16100;BME280;8154;50.830;12.082;2024-02-15T11:38:35;99667.25;;;23.41;35.33
16100;BME280;8154;50.830;12.082;2024-02-15T11:41:05;99668.56;;;23.45;35.53
16100;BME280;8154;50.830;12.082;2024-02-15T11:43:50;99667.91;;;23.43;35.50
16100;BME280;8154;50.830;12.082;2024-02-15T11:46:25;99670.84;;;23.48;35.47
16100;BME280;8154;50.830;12.082;2024-02-15T11:48:54;99657.34;;;23.35;35.37
16100;BME280;8154;50.830;12.082;2024-02-15T11:51:33;99662.50;;;23.36;35.69
16100;BME280;8154;50.830;12.082;2024-02-15T11:54:09;99654.69;;;23.35;35.35
16100;BME280;8154;50.830;12.082;2024-02-15T11:59:16;99648.84;;;23.46;35.32
16100;BME280;8154;50.830;12.082;2024-02-15T12:02:04;99654.00;;;23.47;35.64
16100;BME280;8154;50.830;12.082;2024-02-15T12:04:49;99654.56;;;23.43;35.55
16100;BME280;8154;50.830;12.082;2024-02-15T12:07:34;99641.53;;;23.33;35.24
16100;BME280;8154;50.830;12.082;2024-02-15T12:10:19;99626.31;;;23.27;35.43
16100;BME280;8154;50.830;12.082;2024-02-15T12:13:05;99639.78;;;23.40;35.64
16100;BME280;8154;50.830;12.082;2024-02-15T12:15:58;99638.56;;;23.43;35.71
16100;BME280;8154;50.830;12.082;2024-02-15T12:18:44;99641.69;;;23.46;35.41
16100;BME280;8154;50.830;12.082;2024-02-15T12:21:23;99634.25;;;23.42;35.59
16100;BME280;8154;50.830;12.082;2024-02-15T12:23:51;99620.47;;;23.38;35.40
16100;BME280;8154;50.830;12.082;2024-02-15T12:26:19;99624.34;;;23.36;35.48
16100;BME280;8154;50.830;12.082;2024-02-15T12:28:52;99630.13;;;23.39;35.31
16100;BME280;8154;50.830;12.082;2024-02-15T12:31:26;99626.88;;;23.44;35.57
16100;BME280;8154;50.830;12.082;2024-02-15T12:34:03;99625.50;;;23.48;35.41
16100;BME280;8154;50.830;12.082;2024-02-15T12:36:34;99624.66;;;23.47;35.36
16100;BME280;8154;50.830;12.082;2024-02-15T12:39:07;99619.13;;;23.49;35.52
16100;BME280;8154;50.830;12.082;2024-02-15T12:41:39;99628.16;;;23.48;35.30
16100;BME280;8154;50.830;12.082;2024-02-15T12:44:08;99619.91;;;23.43;35.65
16100;BME280;8154;50.830;12.082;2024-02-15T12:46:40;99624.84;;;23.46;35.69
16100;BME280;8154;50.830;12.082;2024-02-15T12:51:53;99616.47;;;23.49;35.53
16100;BME280;8154;50.830;12.082;2024-02-15T12:54:22;99618.47;;;23.47;35.68
16100;BME280;8154;50.830;12.082;2024-02-15T12:56:50;99611.50;;;23.46;35.42
16100;BME280;8154;50.830;12.082;2024-02-15T12:59:35;99621.16;;;23.47;35.52
16100;BME280;8154;50.830;12.082;2024-02-15T13:02:03;99611.69;;;23.44;35.34
16100;BME280;8154;50.830;12.082;2024-02-15T13:04:33;99615.59;;;23.42;35.60
16100;BME280;8154;50.830;12.082;2024-02-15T13:06:59;99605.50;;;23.37;35.66
16100;BME280;8154;50.830;12.082;2024-02-15T13:09:27;99584.28;;;23.29;35.71
16100;BME280;8154;50.830;12.082;2024-02-15T13:11:54;99595.88;;;23.43;35.46
16100;BME280;8154;50.830;12.082;2024-02-15T13:14:21;99595.13;;;23.49;35.27
16100;BME280;8154;50.830;12.082;2024-02-15T13:16:51;99602.66;;;23.45;35.38
16100;BME280;8154;50.830;12.082;2024-02-15T13:19:19;99586.31;;;23.48;35.34
16100;BME280;8154;50.830;12.082;2024-02-15T13:21:49;99587.50;;;23.46;35.22
16100;BME280;8154;50.830;12.082;2024-02-15T13:24:20;99585.94;;;23.51;35.27
16100;BME280;8154;50.830;12.082;2024-02-15T13:26:48;99582.88;;;23.54;35.18
16100;BME280;8154;50.830;12.082;2024-02-15T13:29:15;99581.59;;;23.50;35.34
16100;BME280;8154;50.830;12.082;2024-02-15T13:31:42;99586.13;;;23.50;35.29